createdAt,value
2022-10-06T00:02:37.039Z,3.42
2022-10-06T00:08:39.571Z,3.72
2022-10-06T00:14:41.130Z,3.90
2022-10-06T00:20:45.453Z,3.63
2022-10-06T00:26:47.279Z,3.33
2022-10-06T00:32:56.037Z,3.33
2022-10-06T00:38:57.619Z,3.40
2022-10-06T00:45:03.400Z,3.33
2022-10-06T00:51:06.029Z,3.60
2022-10-06T00:57:07.891Z,3.00
2022-10-06T01:03:11.999Z,3.00
2022-10-06T01:09:15.183Z,2.70
2022-10-06T01:15:16.857Z,2.80
2022-10-06T01:21:23.008Z,2.63
2022-10-06T01:27:25.777Z,2.67
2022-10-06T01:33:27.586Z,2.80
2022-10-06T01:39:29.331Z,3.28
2022-10-06T01:45:31.111Z,2.93
2022-10-06T01:51:32.687Z,2.50
2022-10-06T01:57:38.667Z,2.90
2022-10-06T02:03:41.125Z,2.78
2022-10-06T02:09:44.753Z,2.80
2022-10-06T02:15:47.004Z,2.67
2022-10-06T02:21:48.639Z,3.10
2022-10-06T02:27:50.441Z,3.17
2022-10-06T02:33:52.123Z,3.10
2022-10-06T02:39:54.302Z,3.00
2022-10-06T02:45:56.911Z,3.10
2022-10-06T02:51:59.455Z,3.00
2022-10-06T02:58:01.798Z,3.03
2022-10-06T03:04:03.566Z,3.00
2022-10-06T03:10:05.365Z,2.83
2022-10-06T03:16:15.276Z,2.53
2022-10-06T03:22:17.115Z,2.50
2022-10-06T03:28:25.409Z,2.70
2022-10-06T03:34:27.289Z,2.80
2022-10-06T03:40:30.634Z,2.90
2022-10-06T03:46:33.507Z,2.93
2022-10-06T03:52:36.502Z,2.97
2022-10-06T03:58:39.826Z,2.87
2022-10-06T04:04:41.463Z,3.00
2022-10-06T04:10:45.164Z,3.05
2022-10-06T04:16:48.002Z,3.13
2022-10-06T04:22:54.608Z,2.67
2022-10-06T04:28:57.085Z,2.60
2022-10-06T04:34:58.925Z,2.90
2022-10-06T04:41:10.151Z,3.10
2022-10-06T04:47:12.024Z,1.30
2022-10-06T04:53:14.227Z,1.10
2022-10-06T04:59:17.055Z,0.70
2022-10-06T05:05:20.057Z,1.10
2022-10-06T05:11:25.780Z,0.68
2022-10-06T05:17:28.822Z,0.60
2022-10-06T05:23:31.815Z,0.82
2022-10-06T05:29:34.342Z,0.60
2022-10-06T05:35:37.157Z,0.70
2022-10-06T05:41:39.030Z,0.73
2022-10-06T05:47:43.564Z,0.90
2022-10-06T05:53:45.605Z,2.00
2022-10-06T05:59:48.029Z,0.70
2022-10-06T06:05:49.784Z,1.20
2022-10-06T06:11:54.578Z,0.70
2022-10-06T06:18:01.556Z,0.70
2022-10-06T06:24:03.829Z,0.70
2022-10-06T06:30:06.755Z,0.80
2022-10-06T06:36:15.931Z,0.70
2022-10-06T06:42:17.768Z,0.93
2022-10-06T06:48:22.613Z,0.70
2022-10-06T06:54:27.208Z,1.15
2022-10-06T07:00:36.358Z,0.90
2022-10-06T07:06:40.345Z,1.00
2022-10-06T07:12:45.337Z,1.00
2022-10-06T07:19:05.766Z,1.20
2022-10-06T07:25:11.757Z,1.20
2022-10-06T07:31:19.674Z,1.50
2022-10-06T07:37:24.076Z,1.10
2022-10-06T07:43:25.999Z,1.73
2022-10-06T07:49:28.077Z,1.10
2022-10-06T07:55:29.683Z,1.70
2022-10-06T08:01:52.940Z,1.80
2022-10-06T08:07:54.973Z,1.20
2022-10-06T08:13:56.563Z,1.23
2022-10-06T08:19:58.266Z,1.40
2022-10-06T08:25:59.768Z,1.20
2022-10-06T08:32:02.986Z,1.10
2022-10-06T08:38:04.470Z,1.42
2022-10-06T08:44:16.587Z,1.00
2022-10-06T08:50:18.204Z,1.20
2022-10-06T08:56:21.821Z,1.27
2022-10-06T09:02:23.372Z,1.40
2022-10-06T09:08:34.121Z,1.45
2022-10-06T09:14:39.685Z,1.17
2022-10-06T09:20:51.031Z,1.30
2022-10-06T09:26:53.355Z,1.33
2022-10-06T09:32:59.234Z,1.30
2022-10-06T09:39:00.788Z,1.20
2022-10-06T09:45:07.848Z,1.50
2022-10-06T09:51:13.746Z,1.20
2022-10-06T09:57:21.397Z,1.10
2022-10-06T10:03:25.970Z,1.70
2022-10-06T10:09:27.952Z,1.48
2022-10-06T10:15:53.525Z,1.42
2022-10-06T10:21:56.309Z,1.20
2022-10-06T10:28:08.872Z,1.58
2022-10-06T10:34:24.982Z,1.20
2022-10-06T10:40:35.005Z,1.30
2022-10-06T10:46:43.397Z,1.30
2022-10-06T10:52:46.506Z,1.30
2022-10-06T10:58:49.324Z,1.38
2022-10-06T11:04:53.015Z,1.57
2022-10-06T11:10:58.793Z,1.20
2022-10-06T11:17:23.222Z,1.40
2022-10-06T11:23:40.613Z,1.57
2022-10-06T11:29:48.856Z,1.45
2022-10-06T11:35:51.058Z,1.20
2022-10-06T11:42:06.856Z,1.00
2022-10-06T11:48:23.374Z,1.30
2022-10-06T11:54:40.071Z,1.60
2022-10-06T12:00:43.003Z,1.25
2022-10-06T12:06:45.136Z,1.50
2022-10-06T12:13:05.789Z,1.48
2022-10-06T12:19:08.762Z,1.30
2022-10-06T12:25:20.202Z,1.40
2022-10-06T12:31:21.757Z,1.00
2022-10-06T12:37:29.378Z,1.10
2022-10-06T12:43:43.641Z,1.20
2022-10-06T12:49:58.506Z,1.20
2022-10-06T12:56:02.897Z,1.30
2022-10-06T13:02:07.787Z,1.50
2022-10-06T13:08:26.459Z,1.40
2022-10-06T13:14:27.959Z,1.50
2022-10-06T13:20:34.127Z,1.50
2022-10-06T13:26:35.878Z,1.20
2022-10-06T13:32:37.594Z,1.48
2022-10-06T13:38:39.857Z,1.67
2022-10-06T13:44:44.008Z,1.63
2022-10-06T13:50:46.818Z,1.73
2022-10-06T13:56:48.376Z,1.27
2022-10-06T14:02:54.788Z,1.33
2022-10-06T14:08:57.774Z,1.33
2022-10-06T14:15:00.974Z,1.17
2022-10-06T14:21:21.923Z,0.98
2022-10-06T14:27:23.476Z,1.00
2022-10-06T14:33:25.634Z,1.10
2022-10-06T14:39:28.413Z,1.50
2022-10-06T14:45:35.992Z,1.40
2022-10-06T14:51:38.413Z,1.00
2022-10-06T14:57:40.619Z,1.00
2022-10-06T15:03:46.758Z,1.55
2022-10-06T15:09:50.490Z,0.93
2022-10-06T15:15:57.109Z,1.10
2022-10-06T15:21:58.694Z,1.20
2022-10-06T15:28:21.330Z,1.20
2022-10-06T15:34:26.392Z,1.02
2022-10-06T15:40:27.967Z,1.07
2022-10-06T15:46:37.146Z,1.00
2022-10-06T15:52:38.699Z,1.00
2022-10-06T15:58:40.181Z,1.10
2022-10-06T16:04:42.161Z,1.08
2022-10-06T16:10:48.736Z,1.10
2022-10-06T16:16:50.560Z,0.90
2022-10-06T16:22:52.171Z,1.00
2022-10-06T16:28:54.029Z,1.23
2022-10-06T16:34:55.580Z,1.55
2022-10-06T16:40:58.306Z,1.40
2022-10-06T16:47:00.042Z,1.35
2022-10-06T16:53:01.655Z,7.43
2022-10-06T16:59:13.839Z,6.83
2022-10-06T17:05:15.371Z,3.13
2022-10-06T17:11:21.315Z,1.80
2022-10-06T17:17:22.829Z,1.60
2022-10-06T17:23:24.891Z,1.60
2022-10-06T17:29:27.131Z,1.80
2022-10-06T17:35:28.743Z,1.92
2022-10-06T17:41:31.448Z,2.80
2022-10-06T17:47:33.058Z,3.25
2022-10-06T17:53:34.681Z,2.60
2022-10-06T17:59:36.198Z,3.27
2022-10-06T18:05:39.594Z,3.10
2022-10-06T18:11:43.736Z,16.10
2022-10-06T18:17:45.271Z,11.73
2022-10-06T18:23:47.538Z,9.02
2022-10-06T18:29:49.120Z,5.10
2022-10-06T18:42:14.112Z,4.67
2022-10-06T18:48:34.063Z,3.65
2022-10-06T18:54:35.694Z,4.47
2022-10-06T19:00:37.247Z,4.27
2022-10-06T19:06:40.230Z,4.45
2022-10-06T19:12:41.842Z,4.20
2022-10-06T19:18:43.480Z,4.20
2022-10-06T19:24:45.393Z,4.03
2022-10-06T19:30:55.363Z,3.97
2022-10-06T19:36:58.180Z,3.80
2022-10-06T19:42:59.743Z,3.93
2022-10-06T19:49:05.585Z,4.13
2022-10-06T19:55:07.289Z,4.25
2022-10-06T20:01:09.044Z,4.70
2022-10-06T20:07:10.700Z,4.35
2022-10-06T20:13:12.340Z,4.77
2022-10-06T20:19:13.978Z,5.55
2022-10-06T20:25:15.562Z,4.65
2022-10-06T20:31:22.582Z,4.20
2022-10-06T20:37:24.259Z,4.43
2022-10-06T20:43:25.782Z,4.70
2022-10-06T20:49:27.491Z,4.95
2022-10-06T20:55:29.121Z,4.80
2022-10-06T21:01:30.842Z,5.00
2022-10-06T21:07:34.328Z,4.50
2022-10-06T21:13:35.955Z,4.67
2022-10-06T21:19:37.868Z,4.50
2022-10-06T21:25:39.654Z,4.68
2022-10-06T21:31:41.889Z,4.17
2022-10-06T21:37:44.491Z,4.70
2022-10-06T21:43:46.320Z,5.00
2022-10-06T21:49:47.979Z,5.00
2022-10-06T21:55:53.333Z,4.85
2022-10-06T22:01:55.023Z,4.43
2022-10-06T22:07:56.684Z,4.18
2022-10-06T22:13:59.747Z,4.80
2022-10-06T22:20:01.404Z,4.70
2022-10-06T22:26:03.767Z,4.53
2022-10-06T22:32:05.380Z,4.60
2022-10-06T22:38:07.088Z,4.43
2022-10-06T22:44:08.838Z,4.73
2022-10-06T22:50:10.467Z,4.20
2022-10-06T22:56:12.139Z,4.65
2022-10-06T23:02:13.791Z,4.70
2022-10-06T23:08:15.531Z,4.85
2022-10-06T23:14:17.155Z,4.63
2022-10-06T23:20:18.936Z,5.28
2022-10-06T23:26:20.997Z,4.88
2022-10-06T23:32:22.651Z,5.00
2022-10-06T23:38:24.363Z,5.05
2022-10-06T23:44:26.027Z,4.83
2022-10-06T23:50:27.655Z,4.88
2022-10-06T23:56:29.266Z,4.40
